createdAt,value
2019-04-21T15:56:08.837Z,100262.70
2019-04-21T15:59:00.984Z,100254.50
2019-04-21T16:01:50.651Z,100256.71
2019-04-21T16:04:20.920Z,100257.01
2019-04-21T16:06:50.569Z,100248.08
2019-04-21T16:09:22.372Z,100250.92
2019-04-21T16:11:51.876Z,100243.92
2019-04-21T16:14:22.756Z,100244.88
2019-04-21T16:16:53.673Z,100247.03
2019-04-21T16:19:24.964Z,100236.58
2019-04-21T16:21:54.793Z,100236.05
2019-04-21T16:24:25.307Z,100233.55
2019-04-21T16:26:56.524Z,100228.11
2019-04-21T16:29:27.228Z,100227.69
2019-04-21T16:31:57.391Z,100221.64
2019-04-21T16:34:37.888Z,100216.61
2019-04-21T16:36:59.461Z,100213.05
2019-04-21T16:39:29.759Z,100211.92
2019-04-21T16:42:00.398Z,100212.63
2019-04-21T16:44:31.311Z,100208.84
2019-04-21T16:47:01.381Z,100203.56
2019-04-21T16:49:31.789Z,100205.06
2019-04-21T16:52:38.439Z,100199.31
2019-04-21T16:55:27.118Z,100196.89
2019-04-21T16:58:20.573Z,100196.45
2019-04-21T17:00:59.547Z,100199.24
2019-04-21T17:03:24.279Z,100195.29
2019-04-21T17:05:54.264Z,100184.62
2019-04-21T17:08:24.048Z,100185.55
2019-04-21T17:11:03.029Z,100185.85
2019-04-21T17:13:25.166Z,100183.66
2019-04-21T17:16:16.862Z,100181.94
2019-04-21T17:18:44.657Z,100182.20
2019-04-21T17:21:01.163Z,100179.64
2019-04-21T17:23:29.439Z,100180.41
2019-04-21T17:25:59.327Z,100180.22
2019-04-21T17:28:29.903Z,100174.58
2019-04-21T17:31:00.113Z,100172.34
2019-04-21T17:33:30.673Z,100174.59
2019-04-21T17:36:02.931Z,100171.75
2019-04-21T17:38:32.558Z,100169.53
2019-04-21T17:41:14.186Z,100168.25
2019-04-21T17:43:33.853Z,100168.83
2019-04-21T17:46:04.847Z,100163.02
2019-04-21T17:48:34.738Z,100163.05
2019-04-21T17:51:13.685Z,100162.05
2019-04-21T17:54:00.290Z,100156.96
2019-04-21T17:56:55.071Z,100161.88
2019-04-21T17:59:40.302Z,100161.53
2019-04-21T18:01:47.208Z,100159.38
2019-04-21T18:04:24.332Z,100158.69
2019-04-21T18:07:17.222Z,100153.28
2019-04-21T18:09:59.098Z,100159.09
2019-04-21T18:12:22.585Z,100159.67
2019-04-21T18:14:36.942Z,100168.38
2019-04-21T18:17:08.730Z,100171.00
2019-04-21T18:19:41.806Z,100169.54
2019-04-21T18:22:38.564Z,100164.64
2019-04-21T18:25:12.443Z,100175.09
2019-04-21T18:27:40.688Z,100173.73
2019-04-21T18:30:44.542Z,100169.59
2019-04-21T18:33:23.544Z,100175.49
2019-04-21T18:36:05.129Z,100167.69
2019-04-21T18:39:04.094Z,100168.19
2019-04-21T18:41:17.385Z,100163.91
2019-04-21T18:44:13.618Z,100168.49
2019-04-21T18:47:09.639Z,100166.69
2019-04-21T18:49:27.224Z,100161.75
2019-04-21T18:52:08.089Z,100159.53
2019-04-21T18:54:49.050Z,100156.78
2019-04-21T18:57:10.630Z,100167.95
2019-04-21T18:59:39.601Z,100161.95
2019-04-21T19:02:08.436Z,100164.96
2019-04-21T19:04:38.981Z,100166.50
2019-04-21T19:07:20.060Z,100176.29
2019-04-21T19:12:47.630Z,100165.20
2019-04-21T19:14:57.973Z,100175.76
2019-04-21T19:17:58.149Z,100171.79
2019-04-21T19:20:20.937Z,100171.45
2019-04-21T19:22:34.172Z,100176.37
2019-04-21T19:27:35.513Z,100176.41
2019-04-21T19:32:33.552Z,100169.88
2019-04-21T19:34:57.096Z,100173.64
2019-04-21T19:37:26.261Z,100166.34
2019-04-21T19:40:05.726Z,100164.45
2019-04-21T19:42:36.973Z,100157.80
2019-04-21T19:47:44.729Z,100154.49
2019-04-21T19:50:16.918Z,100162.95
2019-04-21T19:52:40.922Z,100156.17
2019-04-21T19:55:00.484Z,100160.25
2019-04-21T19:57:31.304Z,100162.45
2019-04-21T20:00:04.290Z,100155.67
2019-04-21T20:02:32.292Z,100157.88
2019-04-21T20:05:07.018Z,100156.20
2019-04-21T20:07:48.230Z,100150.14
2019-04-21T20:10:27.013Z,100152.53
2019-04-21T20:12:57.012Z,100156.50
2019-04-21T20:15:33.008Z,100152.62
2019-04-21T20:17:55.128Z,100147.05
2019-04-21T20:20:11.267Z,100149.54
2019-04-21T20:22:44.095Z,100148.80
2019-04-21T20:25:16.114Z,100146.20
2019-04-21T20:27:52.833Z,100141.01
2019-04-21T20:30:31.081Z,100144.17
2019-04-21T20:33:14.164Z,100144.90
2019-04-21T20:35:44.846Z,100148.23
2019-04-21T20:38:04.779Z,100147.45
2019-04-21T20:40:31.811Z,100145.43
2019-04-21T20:43:11.462Z,100144.27
2019-04-21T20:45:59.345Z,100143.88
2019-04-21T20:47:59.926Z,100142.63
2019-04-21T20:50:37.965Z,100143.04
2019-04-21T20:53:17.914Z,100140.11
2019-04-21T20:55:48.471Z,100143.55
2019-04-21T20:58:15.585Z,100144.01
2019-04-21T21:00:55.742Z,100141.28
2019-04-21T21:03:24.325Z,100138.01
2019-04-21T21:05:49.910Z,100136.74
2019-04-21T21:08:34.574Z,100137.98
2019-04-21T21:10:53.236Z,100131.77
2019-04-21T21:18:50.134Z,100129.81
2019-04-21T21:20:59.112Z,100129.55
2019-04-21T21:23:34.690Z,100129.50
2019-04-21T21:26:03.085Z,100123.08
2019-04-21T21:28:29.088Z,100123.59
2019-04-21T21:31:04.219Z,100118.79
2019-04-21T21:33:37.349Z,100121.89
2019-04-21T21:36:06.492Z,100120.95
2019-04-21T21:38:40.880Z,100114.17
2019-04-21T21:40:59.870Z,100121.17
2019-04-21T21:43:25.019Z,100119.14
2019-04-21T21:45:59.063Z,100117.71
2019-04-21T21:48:38.300Z,100118.50
2019-04-21T21:51:08.189Z,100115.88
2019-04-21T21:53:29.028Z,100113.94
2019-04-21T21:55:58.552Z,100112.14
2019-04-21T21:58:36.070Z,100110.59
2019-04-21T22:01:04.129Z,100109.83
2019-04-21T22:03:36.751Z,100110.73
2019-04-21T22:06:07.827Z,100103.27
2019-04-21T22:08:34.380Z,100107.63
2019-04-21T22:11:05.432Z,100109.12
2019-04-21T22:13:44.745Z,100104.82
2019-04-21T22:16:10.596Z,100096.80
2019-04-21T22:19:01.538Z,100093.14
2019-04-21T22:21:18.167Z,100088.16
2019-04-21T22:23:49.866Z,100092.66
2019-04-21T22:26:11.461Z,100102.20
2019-04-21T22:28:41.547Z,100101.96
2019-04-21T22:31:16.387Z,100097.98
2019-04-21T22:33:48.306Z,100102.73
2019-04-21T22:36:26.717Z,100095.24
2019-04-21T22:39:04.883Z,100101.34
2019-04-21T22:41:26.623Z,100090.10
2019-04-21T22:43:49.828Z,100093.69
2019-04-21T22:46:18.138Z,100092.29
2019-04-21T22:48:55.937Z,100093.64
2019-04-21T22:51:28.455Z,100100.75
2019-04-21T22:53:55.504Z,100088.86
2019-04-21T22:56:26.818Z,100092.58
2019-04-21T22:58:54.891Z,100090.64
2019-04-21T23:01:33.510Z,100087.45
2019-04-21T23:04:00.857Z,100090.57
2019-04-21T23:06:30.898Z,100093.84
2019-04-21T23:08:59.138Z,100091.85
2019-04-21T23:11:38.679Z,100091.70
2019-04-21T23:14:04.298Z,100091.44
2019-04-21T23:16:35.613Z,100095.34
2019-04-21T23:19:20.133Z,100093.86
2019-04-21T23:21:53.853Z,100088.22
2019-04-21T23:24:30.230Z,100080.59
2019-04-21T23:26:50.730Z,100085.66
2019-04-21T23:29:32.315Z,100083.06
2019-04-21T23:31:56.044Z,100091.50
2019-04-21T23:34:12.989Z,100081.72
2019-04-21T23:36:48.219Z,100083.06
2019-04-21T23:39:19.048Z,100076.02
2019-04-21T23:41:50.623Z,100080.97
2019-04-21T23:44:15.476Z,100080.80
2019-04-21T23:46:45.821Z,100081.05
2019-04-21T23:49:30.619Z,100082.11
2019-04-21T23:51:54.673Z,100082.65
2019-04-21T23:54:17.754Z,100082.00
2019-04-21T23:56:47.809Z,100077.34
2019-04-21T23:59:18.056Z,100077.13
